sensor_id;sensor_type;location;lat;lon;timestamp;P1;P2;P0
73973;PMS5003;62336;-26.094;27.994;2023-07-16T00:00:35;66;58;
73973;PMS5003;62336;-26.094;27.994;2023-07-16T00:03:01;64;62;
73973;PMS5003;62336;-26.094;27.994;2023-07-16T00:05:27;63;59;
73973;PMS5003;62336;-26.094;27.994;2023-07-16T00:07:52;65;60;
73973;PMS5003;62336;-26.094;27.994;2023-07-16T00:10:17;67;64;
73973;PMS5003;62336;-26.094;27.994;2023-07-16T00:12:43;62;59;
73973;PMS5003;62336;-26.094;27.994;2023-07-16T00:15:09;66;62;
73973;PMS5003;62336;-26.094;27.994;2023-07-16T00:17:35;65;62;
73973;PMS5003;62336;-26.094;27.994;2023-07-16T00:20:01;67;62;
73973;PMS5003;62336;-26.094;27.994;2023-07-16T00:22:26;71;66;
73973;PMS5003;62336;-26.094;27.994;2023-07-16T00:24:51;68;65;
73973;PMS5003;62336;-26.094;27.994;2023-07-16T00:27:16;80;76;
73973;PMS5003;62336;-26.094;27.994;2023-07-16T00:29:42;79;76;
73973;PMS5003;62336;-26.094;27.994;2023-07-16T00:32:07;75;70;
73973;PMS5003;62336;-26.094;27.994;2023-07-16T00:34:32;79;75;
73973;PMS5003;62336;-26.094;27.994;2023-07-16T00:36:57;77;75;
73973;PMS5003;62336;-26.094;27.994;2023-07-16T00:39:23;78;73;
73973;PMS5003;62336;-26.094;27.994;2023-07-16T00:41:49;88;79;
73973;PMS5003;62336;-26.094;27.994;2023-07-16T00:44:14;82;75;
73973;PMS5003;62336;-26.094;27.994;2023-07-16T00:46:39;72;70;
73973;PMS5003;62336;-26.094;27.994;2023-07-16T00:49:05;75;71;
73973;PMS5003;62336;-26.094;27.994;2023-07-16T00:51:30;78;71;
73973;PMS5003;62336;-26.094;27.994;2023-07-16T00:53:56;73;68;
73973;PMS5003;62336;-26.094;27.994;2023-07-16T00:56:21;69;67;
73973;PMS5003;62336;-26.094;27.994;2023-07-16T00:58:47;77;71;
73973;PMS5003;62336;-26.094;27.994;2023-07-16T01:01:12;75;72;
73973;PMS5003;62336;-26.094;27.994;2023-07-16T01:03:38;73;70;
73973;PMS5003;62336;-26.094;27.994;2023-07-16T01:06:06;70;66;
73973;PMS5003;62336;-26.094;27.994;2023-07-16T01:08:30;63;62;
73973;PMS5003;62336;-26.094;27.994;2023-07-16T01:10:55;69;65;
73973;PMS5003;62336;-26.094;27.994;2023-07-16T01:13:20;72;70;
73973;PMS5003;62336;-26.094;27.994;2023-07-16T01:15:45;70;68;
73973;PMS5003;62336;-26.094;27.994;2023-07-16T01:18:11;74;70;
73973;PMS5003;62336;-26.094;27.994;2023-07-16T01:20:36;72;68;
73973;PMS5003;62336;-26.094;27.994;2023-07-16T01:23:07;83;79;
73973;PMS5003;62336;-26.094;27.994;2023-07-16T01:25:32;71;67;
73973;PMS5003;62336;-26.094;27.994;2023-07-16T01:28:03;75;70;
73973;PMS5003;62336;-26.094;27.994;2023-07-16T01:30:17;78;75;
73973;PMS5003;62336;-26.094;27.994;2023-07-16T01:32:42;80;75;
73973;PMS5003;62336;-26.094;27.994;2023-07-16T01:35:08;77;71;
73973;PMS5003;62336;-26.094;27.994;2023-07-16T01:37:33;85;79;
73973;PMS5003;62336;-26.094;27.994;2023-07-16T01:39:59;83;75;
73973;PMS5003;62336;-26.094;27.994;2023-07-16T01:42:24;80;77;
73973;PMS5003;62336;-26.094;27.994;2023-07-16T01:44:49;78;75;
73973;PMS5003;62336;-26.094;27.994;2023-07-16T01:47:15;81;80;
73973;PMS5003;62336;-26.094;27.994;2023-07-16T01:49:40;88;78;
73973;PMS5003;62336;-26.094;27.994;2023-07-16T01:52:06;81;79;
73973;PMS5003;62336;-26.094;27.994;2023-07-16T01:54:31;79;74;
73973;PMS5003;62336;-26.094;27.994;2023-07-16T01:56:56;84;81;
73973;PMS5003;62336;-26.094;27.994;2023-07-16T01:59:22;88;80;
73973;PMS5003;62336;-26.094;27.994;2023-07-16T02:01:47;87;81;
73973;PMS5003;62336;-26.094;27.994;2023-07-16T02:04:13;84;81;
73973;PMS5003;62336;-26.094;27.994;2023-07-16T02:06:38;94;88;
73973;PMS5003;62336;-26.094;27.994;2023-07-16T02:09:11;85;82;
73973;PMS5003;62336;-26.094;27.994;2023-07-16T02:11:30;92;86;
73973;PMS5003;62336;-26.094;27.994;2023-07-16T02:13:55;94;88;
73973;PMS5003;62336;-26.094;27.994;2023-07-16T02:16:20;93;88;
73973;PMS5003;62336;-26.094;27.994;2023-07-16T02:18:45;102;97;
73973;PMS5003;62336;-26.094;27.994;2023-07-16T02:21:11;105;96;
73973;PMS5003;62336;-26.094;27.994;2023-07-16T02:23:37;113;104;
73973;PMS5003;62336;-26.094;27.994;2023-07-16T02:26:07;117;106;
73973;PMS5003;62336;-26.094;27.994;2023-07-16T02:28:27;109;103;
73973;PMS5003;62336;-26.094;27.994;2023-07-16T02:30:52;104;99;
73973;PMS5003;62336;-26.094;27.994;2023-07-16T02:33:18;112;105;
73973;PMS5003;62336;-26.094;27.994;2023-07-16T02:35:46;101;98;
73973;PMS5003;62336;-26.094;27.994;2023-07-16T02:38:09;106;104;
73973;PMS5003;62336;-26.094;27.994;2023-07-16T02:40:34;101;98;
73973;PMS5003;62336;-26.094;27.994;2023-07-16T02:43:00;112;104;
73973;PMS5003;62336;-26.094;27.994;2023-07-16T02:45:26;104;100;
73973;PMS5003;62336;-26.094;27.994;2023-07-16T02:47:52;107;100;
73973;PMS5003;62336;-26.094;27.994;2023-07-16T02:50:17;91;88;
73973;PMS5003;62336;-26.094;27.994;2023-07-16T02:52:43;92;88;
73973;PMS5003;62336;-26.094;27.994;2023-07-16T02:55:09;92;87;
73973;PMS5003;62336;-26.094;27.994;2023-07-16T02:57:34;86;82;
73973;PMS5003;62336;-26.094;27.994;2023-07-16T03:00:00;82;75;
73973;PMS5003;62336;-26.094;27.994;2023-07-16T03:02:25;79;76;
73973;PMS5003;62336;-26.094;27.994;2023-07-16T03:04:51;75;71;
73973;PMS5003;62336;-26.094;27.994;2023-07-16T03:07:16;73;69;
73973;PMS5003;62336;-26.094;27.994;2023-07-16T03:09:41;73;71;
73973;PMS5003;62336;-26.094;27.994;2023-07-16T03:12:07;71;66;
73973;PMS5003;62336;-26.094;27.994;2023-07-16T03:14:32;62;61;
73973;PMS5003;62336;-26.094;27.994;2023-07-16T03:16:58;54;51;
73973;PMS5003;62336;-26.094;27.994;2023-07-16T03:19:24;54;53;
73973;PMS5003;62336;-26.094;27.994;2023-07-16T03:21:49;45;44;
73973;PMS5003;62336;-26.094;27.994;2023-07-16T03:24:15;46;45;
73973;PMS5003;62336;-26.094;27.994;2023-07-16T03:26:40;38;38;
73973;PMS5003;62336;-26.094;27.994;2023-07-16T03:29:06;33;32;
73973;PMS5003;62336;-26.094;27.994;2023-07-16T03:31:31;32;29;
73973;PMS5003;62336;-26.094;27.994;2023-07-16T03:33:56;30;29;
73973;PMS5003;62336;-26.094;27.994;2023-07-16T03:36:22;39;34;
73973;PMS5003;62336;-26.094;27.994;2023-07-16T03:38:48;27;27;
73973;PMS5003;62336;-26.094;27.994;2023-07-16T03:41:13;33;30;
73973;PMS5003;62336;-26.094;27.994;2023-07-16T03:43:39;27;26;
73973;PMS5003;62336;-26.094;27.994;2023-07-16T03:46:05;22;21;
73973;PMS5003;62336;-26.094;27.994;2023-07-16T03:48:30;22;21;
73973;PMS5003;62336;-26.094;27.994;2023-07-16T03:50:56;17;17;
73973;PMS5003;62336;-26.094;27.994;2023-07-16T03:53:21;21;20;
73973;PMS5003;62336;-26.094;27.994;2023-07-16T03:55:47;22;20;
73973;PMS5003;62336;-26.094;27.994;2023-07-16T03:58:13;18;17;
73973;PMS5003;62336;-26.094;27.994;2023-07-16T04:00:38;20;18;
73973;PMS5003;62336;-26.094;27.994;2023-07-16T04:03:04;21;19;
73973;PMS5003;62336;-26.094;27.994;2023-07-16T04:05:29;20;16;
73973;PMS5003;62336;-26.094;27.994;2023-07-16T04:07:54;18;16;
73973;PMS5003;62336;-26.094;27.994;2023-07-16T04:10:19;14;13;
73973;PMS5003;62336;-26.094;27.994;2023-07-16T04:12:45;16;15;
73973;PMS5003;62336;-26.094;27.994;2023-07-16T04:15:11;17;16;
73973;PMS5003;62336;-26.094;27.994;2023-07-16T04:17:35;15;15;
73973;PMS5003;62336;-26.094;27.994;2023-07-16T04:20:00;15;14;
73973;PMS5003;62336;-26.094;27.994;2023-07-16T04:22:25;17;17;
73973;PMS5003;62336;-26.094;27.994;2023-07-16T04:24:50;14;14;
73973;PMS5003;62336;-26.094;27.994;2023-07-16T04:27:16;17;17;
73973;PMS5003;62336;-26.094;27.994;2023-07-16T04:29:41;14;13;
73973;PMS5003;62336;-26.094;27.994;2023-07-16T04:32:06;13;13;
73973;PMS5003;62336;-26.094;27.994;2023-07-16T04:34:32;16;16;
73973;PMS5003;62336;-26.094;27.994;2023-07-16T04:36:58;13;13;
73973;PMS5003;62336;-26.094;27.994;2023-07-16T04:39:23;13;13;
73973;PMS5003;62336;-26.094;27.994;2023-07-16T04:41:48;14;13;
73973;PMS5003;62336;-26.094;27.994;2023-07-16T04:44:14;13;13;
73973;PMS5003;62336;-26.094;27.994;2023-07-16T04:46:39;15;15;
73973;PMS5003;62336;-26.094;27.994;2023-07-16T04:49:04;14;11;
73973;PMS5003;62336;-26.094;27.994;2023-07-16T04:51:29;16;14;
73973;PMS5003;62336;-26.094;27.994;2023-07-16T04:53:54;14;14;
73973;PMS5003;62336;-26.094;27.994;2023-07-16T04:56:19;12;12;
73973;PMS5003;62336;-26.094;27.994;2023-07-16T04:58:45;14;12;
73973;PMS5003;62336;-26.094;27.994;2023-07-16T05:01:10;13;12;
73973;PMS5003;62336;-26.094;27.994;2023-07-16T05:03:35;13;12;
73973;PMS5003;62336;-26.094;27.994;2023-07-16T05:06:01;12;12;
73973;PMS5003;62336;-26.094;27.994;2023-07-16T05:08:26;10;10;
73973;PMS5003;62336;-26.094;27.994;2023-07-16T05:10:51;13;12;
73973;PMS5003;62336;-26.094;27.994;2023-07-16T05:13:17;12;11;
73973;PMS5003;62336;-26.094;27.994;2023-07-16T05:15:43;12;11;
73973;PMS5003;62336;-26.094;27.994;2023-07-16T05:18:06;12;12;
73973;PMS5003;62336;-26.094;27.994;2023-07-16T05:20:32;13;11;
73973;PMS5003;62336;-26.094;27.994;2023-07-16T05:22:57;13;12;
73973;PMS5003;62336;-26.094;27.994;2023-07-16T05:25:23;13;12;
73973;PMS5003;62336;-26.094;27.994;2023-07-16T05:27:48;14;13;
73973;PMS5003;62336;-26.094;27.994;2023-07-16T05:30:13;14;14;
73973;PMS5003;62336;-26.094;27.994;2023-07-16T05:32:40;12;12;
73973;PMS5003;62336;-26.094;27.994;2023-07-16T05:35:04;13;11;
73973;PMS5003;62336;-26.094;27.994;2023-07-16T05:37:29;13;12;
73973;PMS5003;62336;-26.094;27.994;2023-07-16T05:39:54;10;9;
73973;PMS5003;62336;-26.094;27.994;2023-07-16T05:42:19;15;14;
73973;PMS5003;62336;-26.094;27.994;2023-07-16T05:44:47;14;13;
73973;PMS5003;62336;-26.094;27.994;2023-07-16T05:47:09;14;12;
73973;PMS5003;62336;-26.094;27.994;2023-07-16T05:49:35;13;12;
73973;PMS5003;62336;-26.094;27.994;2023-07-16T05:52:00;16;14;
73973;PMS5003;62336;-26.094;27.994;2023-07-16T05:54:25;13;12;
73973;PMS5003;62336;-26.094;27.994;2023-07-16T05:56:50;16;16;
73973;PMS5003;62336;-26.094;27.994;2023-07-16T05:59:15;14;14;
73973;PMS5003;62336;-26.094;27.994;2023-07-16T06:01:41;14;14;
73973;PMS5003;62336;-26.094;27.994;2023-07-16T06:04:06;16;13;
73973;PMS5003;62336;-26.094;27.994;2023-07-16T06:06:31;13;12;
73973;PMS5003;62336;-26.094;27.994;2023-07-16T06:08:56;18;16;
73973;PMS5003;62336;-26.094;27.994;2023-07-16T06:11:21;12;12;
73973;PMS5003;62336;-26.094;27.994;2023-07-16T06:13:47;13;12;
73973;PMS5003;62336;-26.094;27.994;2023-07-16T06:16:12;14;14;
73973;PMS5003;62336;-26.094;27.994;2023-07-16T06:18:37;13;13;
73973;PMS5003;62336;-26.094;27.994;2023-07-16T06:21:02;13;13;
73973;PMS5003;62336;-26.094;27.994;2023-07-16T06:23:27;10;10;
73973;PMS5003;62336;-26.094;27.994;2023-07-16T06:25:54;16;16;
73973;PMS5003;62336;-26.094;27.994;2023-07-16T06:28:18;14;14;
73973;PMS5003;62336;-26.094;27.994;2023-07-16T06:30:43;15;13;
73973;PMS5003;62336;-26.094;27.994;2023-07-16T06:33:08;16;15;
73973;PMS5003;62336;-26.094;27.994;2023-07-16T06:35:34;12;12;
73973;PMS5003;62336;-26.094;27.994;2023-07-16T06:37:59;15;15;
73973;PMS5003;62336;-26.094;27.994;2023-07-16T06:40:24;16;15;
73973;PMS5003;62336;-26.094;27.994;2023-07-16T06:42:50;14;13;
73973;PMS5003;62336;-26.094;27.994;2023-07-16T06:45:16;17;16;
73973;PMS5003;62336;-26.094;27.994;2023-07-16T06:47:40;15;13;
73973;PMS5003;62336;-26.094;27.994;2023-07-16T06:50:06;16;14;
73973;PMS5003;62336;-26.094;27.994;2023-07-16T06:52:31;11;11;
73973;PMS5003;62336;-26.094;27.994;2023-07-16T06:54:57;13;12;
73973;PMS5003;62336;-26.094;27.994;2023-07-16T06:57:22;16;14;
73973;PMS5003;62336;-26.094;27.994;2023-07-16T06:59:47;15;13;
73973;PMS5003;62336;-26.094;27.994;2023-07-16T07:02:12;15;15;
73973;PMS5003;62336;-26.094;27.994;2023-07-16T07:04:37;14;14;
73973;PMS5003;62336;-26.094;27.994;2023-07-16T07:07:02;20;20;
73973;PMS5003;62336;-26.094;27.994;2023-07-16T07:09:28;16;15;
73973;PMS5003;62336;-26.094;27.994;2023-07-16T07:11:53;20;18;
73973;PMS5003;62336;-26.094;27.994;2023-07-16T07:14:19;15;14;
73973;PMS5003;62336;-26.094;27.994;2023-07-16T07:16:43;14;13;
73973;PMS5003;62336;-26.094;27.994;2023-07-16T07:19:09;18;17;
73973;PMS5003;62336;-26.094;27.994;2023-07-16T07:21:34;18;17;
73973;PMS5003;62336;-26.094;27.994;2023-07-16T07:23:59;15;15;
73973;PMS5003;62336;-26.094;27.994;2023-07-16T07:26:26;18;18;
73973;PMS5003;62336;-26.094;27.994;2023-07-16T07:28:51;19;18;
73973;PMS5003;62336;-26.094;27.994;2023-07-16T07:31:16;16;14;
73973;PMS5003;62336;-26.094;27.994;2023-07-16T07:33:41;18;17;
73973;PMS5003;62336;-26.094;27.994;2023-07-16T07:36:06;19;18;
73973;PMS5003;62336;-26.094;27.994;2023-07-16T07:38:32;20;18;
73973;PMS5003;62336;-26.094;27.994;2023-07-16T07:40:56;27;25;
73973;PMS5003;62336;-26.094;27.994;2023-07-16T07:43:21;25;23;
73973;PMS5003;62336;-26.094;27.994;2023-07-16T07:45:47;38;33;
73973;PMS5003;62336;-26.094;27.994;2023-07-16T07:48:12;30;29;
73973;PMS5003;62336;-26.094;27.994;2023-07-16T07:50:38;32;29;
73973;PMS5003;62336;-26.094;27.994;2023-07-16T07:53:03;35;31;
73973;PMS5003;62336;-26.094;27.994;2023-07-16T07:55:28;35;34;
73973;PMS5003;62336;-26.094;27.994;2023-07-16T07:57:54;34;31;
73973;PMS5003;62336;-26.094;27.994;2023-07-16T08:00:20;40;38;
73973;PMS5003;62336;-26.094;27.994;2023-07-16T08:02:45;44;39;
73973;PMS5003;62336;-26.094;27.994;2023-07-16T08:05:11;50;46;
73973;PMS5003;62336;-26.094;27.994;2023-07-16T08:07:36;46;42;
73973;PMS5003;62336;-26.094;27.994;2023-07-16T08:10:02;40;38;
73973;PMS5003;62336;-26.094;27.994;2023-07-16T08:12:27;45;43;
73973;PMS5003;62336;-26.094;27.994;2023-07-16T08:14:52;50;48;
73973;PMS5003;62336;-26.094;27.994;2023-07-16T08:17:18;52;51;
73973;PMS5003;62336;-26.094;27.994;2023-07-16T08:19:43;27;27;
73973;PMS5003;62336;-26.094;27.994;2023-07-16T08:22:09;42;39;
73973;PMS5003;62336;-26.094;27.994;2023-07-16T08:24:35;16;14;
73973;PMS5003;62336;-26.094;27.994;2023-07-16T08:27:00;13;13;
73973;PMS5003;62336;-26.094;27.994;2023-07-16T08:29:26;17;17;
73973;PMS5003;62336;-26.094;27.994;2023-07-16T08:31:50;11;10;
73973;PMS5003;62336;-26.094;27.994;2023-07-16T08:34:15;13;12;
73973;PMS5003;62336;-26.094;27.994;2023-07-16T08:36:40;14;13;
73973;PMS5003;62336;-26.094;27.994;2023-07-16T08:39:06;15;13;
73973;PMS5003;62336;-26.094;27.994;2023-07-16T08:41:31;12;12;
73973;PMS5003;62336;-26.094;27.994;2023-07-16T08:43:57;14;13;
73973;PMS5003;62336;-26.094;27.994;2023-07-16T08:46:22;11;11;
73973;PMS5003;62336;-26.094;27.994;2023-07-16T08:48:47;13;12;
73973;PMS5003;62336;-26.094;27.994;2023-07-16T08:51:13;13;12;
73973;PMS5003;62336;-26.094;27.994;2023-07-16T08:53:37;11;11;
73973;PMS5003;62336;-26.094;27.994;2023-07-16T08:56:02;11;11;
73973;PMS5003;62336;-26.094;27.994;2023-07-16T08:58:28;10;9;
73973;PMS5003;62336;-26.094;27.994;2023-07-16T09:00:53;11;9;
73973;PMS5003;62336;-26.094;27.994;2023-07-16T09:03:18;13;12;
73973;PMS5003;62336;-26.094;27.994;2023-07-16T09:05:43;16;15;
73973;PMS5003;62336;-26.094;27.994;2023-07-16T09:08:08;13;12;
73973;PMS5003;62336;-26.094;27.994;2023-07-16T09:10:34;13;12;
73973;PMS5003;62336;-26.094;27.994;2023-07-16T09:13:00;13;13;
73973;PMS5003;62336;-26.094;27.994;2023-07-16T09:15:27;13;13;
73973;PMS5003;62336;-26.094;27.994;2023-07-16T09:17:50;13;13;
73973;PMS5003;62336;-26.094;27.994;2023-07-16T09:20:15;13;13;
73973;PMS5003;62336;-26.094;27.994;2023-07-16T09:22:40;15;12;
73973;PMS5003;62336;-26.094;27.994;2023-07-16T09:25:06;15;15;
73973;PMS5003;62336;-26.094;27.994;2023-07-16T09:27:31;15;15;
73973;PMS5003;62336;-26.094;27.994;2023-07-16T09:29:57;17;17;
73973;PMS5003;62336;-26.094;27.994;2023-07-16T09:32:22;15;15;
73973;PMS5003;62336;-26.094;27.994;2023-07-16T09:34:49;15;14;
73973;PMS5003;62336;-26.094;27.994;2023-07-16T09:37:12;15;14;
73973;PMS5003;62336;-26.094;27.994;2023-07-16T09:39:38;14;14;
73973;PMS5003;62336;-26.094;27.994;2023-07-16T09:42:04;17;14;
73973;PMS5003;62336;-26.094;27.994;2023-07-16T09:44:28;15;14;
73973;PMS5003;62336;-26.094;27.994;2023-07-16T09:46:53;15;14;
73973;PMS5003;62336;-26.094;27.994;2023-07-16T09:49:18;13;12;
73973;PMS5003;62336;-26.094;27.994;2023-07-16T09:51:44;13;12;
73973;PMS5003;62336;-26.094;27.994;2023-07-16T09:54:08;14;14;
73973;PMS5003;62336;-26.094;27.994;2023-07-16T09:56:35;11;11;
73973;PMS5003;62336;-26.094;27.994;2023-07-16T09:58:59;14;12;
73973;PMS5003;62336;-26.094;27.994;2023-07-16T10:01:24;12;12;
73973;PMS5003;62336;-26.094;27.994;2023-07-16T10:03:50;13;11;
73973;PMS5003;62336;-26.094;27.994;2023-07-16T10:06:15;16;16;
73973;PMS5003;62336;-26.094;27.994;2023-07-16T10:08:40;14;12;
73973;PMS5003;62336;-26.094;27.994;2023-07-16T10:11:14;12;12;
73973;PMS5003;62336;-26.094;27.994;2023-07-16T10:13:30;15;12;
73973;PMS5003;62336;-26.094;27.994;2023-07-16T10:15:56;13;12;
73973;PMS5003;62336;-26.094;27.994;2023-07-16T10:18:25;10;10;
73973;PMS5003;62336;-26.094;27.994;2023-07-16T10:20:47;12;12;
73973;PMS5003;62336;-26.094;27.994;2023-07-16T10:23:13;13;13;
73973;PMS5003;62336;-26.094;27.994;2023-07-16T10:25:37;15;13;
73973;PMS5003;62336;-26.094;27.994;2023-07-16T10:28:02;14;14;
73973;PMS5003;62336;-26.094;27.994;2023-07-16T10:30:28;13;13;
73973;PMS5003;62336;-26.094;27.994;2023-07-16T10:32:52;14;14;
73973;PMS5003;62336;-26.094;27.994;2023-07-16T10:35:18;15;14;
73973;PMS5003;62336;-26.094;27.994;2023-07-16T10:37:43;11;11;
73973;PMS5003;62336;-26.094;27.994;2023-07-16T10:40:10;11;11;
73973;PMS5003;62336;-26.094;27.994;2023-07-16T10:42:34;13;13;
73973;PMS5003;62336;-26.094;27.994;2023-07-16T10:44:59;16;14;
73973;PMS5003;62336;-26.094;27.994;2023-07-16T10:47:28;12;12;
73973;PMS5003;62336;-26.094;27.994;2023-07-16T10:49:50;16;12;
73973;PMS5003;62336;-26.094;27.994;2023-07-16T10:52:15;14;14;
73973;PMS5003;62336;-26.094;27.994;2023-07-16T10:54:41;13;13;
73973;PMS5003;62336;-26.094;27.994;2023-07-16T10:57:06;13;13;
73973;PMS5003;62336;-26.094;27.994;2023-07-16T10:59:31;14;13;
73973;PMS5003;62336;-26.094;27.994;2023-07-16T11:01:56;11;11;
73973;PMS5003;62336;-26.094;27.994;2023-07-16T11:04:21;15;14;
73973;PMS5003;62336;-26.094;27.994;2023-07-16T11:06:46;14;13;
73973;PMS5003;62336;-26.094;27.994;2023-07-16T11:09:11;12;12;
73973;PMS5003;62336;-26.094;27.994;2023-07-16T11:11:36;12;11;
73973;PMS5003;62336;-26.094;27.994;2023-07-16T11:14:03;12;11;
73973;PMS5003;62336;-26.094;27.994;2023-07-16T11:16:26;11;10;
73973;PMS5003;62336;-26.094;27.994;2023-07-16T11:18:51;13;13;
73973;PMS5003;62336;-26.094;27.994;2023-07-16T11:21:18;13;13;
73973;PMS5003;62336;-26.094;27.994;2023-07-16T11:23:42;13;13;
73973;PMS5003;62336;-26.094;27.994;2023-07-16T11:26:08;15;15;
73973;PMS5003;62336;-26.094;27.994;2023-07-16T11:28:36;13;12;
73973;PMS5003;62336;-26.094;27.994;2023-07-16T11:30:57;15;15;
73973;PMS5003;62336;-26.094;27.994;2023-07-16T11:33:23;17;16;
73973;PMS5003;62336;-26.094;27.994;2023-07-16T11:35:48;16;15;
73973;PMS5003;62336;-26.094;27.994;2023-07-16T11:38:13;17;14;
73973;PMS5003;62336;-26.094;27.994;2023-07-16T11:40:38;13;13;
73973;PMS5003;62336;-26.094;27.994;2023-07-16T11:45:28;11;11;
73973;PMS5003;62336;-26.094;27.994;2023-07-16T11:47:53;12;11;
73973;PMS5003;62336;-26.094;27.994;2023-07-16T11:50:18;12;12;
73973;PMS5003;62336;-26.094;27.994;2023-07-16T11:55:09;22;21;
73973;PMS5003;62336;-26.094;27.994;2023-07-16T11:57:34;18;17;
73973;PMS5003;62336;-26.094;27.994;2023-07-16T12:00:00;16;16;
73973;PMS5003;62336;-26.094;27.994;2023-07-16T12:02:25;13;13;
73973;PMS5003;62336;-26.094;27.994;2023-07-16T12:04:50;15;15;
73973;PMS5003;62336;-26.094;27.994;2023-07-16T12:07:15;17;16;
73973;PMS5003;62336;-26.094;27.994;2023-07-16T12:09:41;23;22;
73973;PMS5003;62336;-26.094;27.994;2023-07-16T12:12:06;24;23;
73973;PMS5003;62336;-26.094;27.994;2023-07-16T12:14:32;28;27;
73973;PMS5003;62336;-26.094;27.994;2023-07-16T12:16:58;22;20;
73973;PMS5003;62336;-26.094;27.994;2023-07-16T12:19:22;21;20;
73973;PMS5003;62336;-26.094;27.994;2023-07-16T12:21:48;23;22;
73973;PMS5003;62336;-26.094;27.994;2023-07-16T12:24:14;21;19;
73973;PMS5003;62336;-26.094;27.994;2023-07-16T12:26:39;21;20;
73973;PMS5003;62336;-26.094;27.994;2023-07-16T12:29:04;21;19;
73973;PMS5003;62336;-26.094;27.994;2023-07-16T12:31:30;20;18;
73973;PMS5003;62336;-26.094;27.994;2023-07-16T12:33:54;21;21;
73973;PMS5003;62336;-26.094;27.994;2023-07-16T12:36:19;13;13;
73973;PMS5003;62336;-26.094;27.994;2023-07-16T12:38:44;15;14;
73973;PMS5003;62336;-26.094;27.994;2023-07-16T12:41:09;14;14;
73973;PMS5003;62336;-26.094;27.994;2023-07-16T12:43:34;13;13;
73973;PMS5003;62336;-26.094;27.994;2023-07-16T12:46:00;20;20;
73973;PMS5003;62336;-26.094;27.994;2023-07-16T12:48:25;19;19;
73973;PMS5003;62336;-26.094;27.994;2023-07-16T12:50:51;17;16;
73973;PMS5003;62336;-26.094;27.994;2023-07-16T12:53:16;13;12;
73973;PMS5003;62336;-26.094;27.994;2023-07-16T12:55:41;15;14;
73973;PMS5003;62336;-26.094;27.994;2023-07-16T12:58:06;13;13;
73973;PMS5003;62336;-26.094;27.994;2023-07-16T13:00:32;14;14;
73973;PMS5003;62336;-26.094;27.994;2023-07-16T13:02:57;15;15;
73973;PMS5003;62336;-26.094;27.994;2023-07-16T13:05:22;15;15;
73973;PMS5003;62336;-26.094;27.994;2023-07-16T13:07:47;13;11;
73973;PMS5003;62336;-26.094;27.994;2023-07-16T13:10:12;12;12;
73973;PMS5003;62336;-26.094;27.994;2023-07-16T13:12:38;15;14;
73973;PMS5003;62336;-26.094;27.994;2023-07-16T13:15:03;14;14;
73973;PMS5003;62336;-26.094;27.994;2023-07-16T13:17:28;10;10;
73973;PMS5003;62336;-26.094;27.994;2023-07-16T13:19:53;14;13;
73973;PMS5003;62336;-26.094;27.994;2023-07-16T13:22:18;12;11;
73973;PMS5003;62336;-26.094;27.994;2023-07-16T13:24:43;14;14;
73973;PMS5003;62336;-26.094;27.994;2023-07-16T13:27:09;11;11;
73973;PMS5003;62336;-26.094;27.994;2023-07-16T13:29:34;14;14;
73973;PMS5003;62336;-26.094;27.994;2023-07-16T13:32:00;14;13;
73973;PMS5003;62336;-26.094;27.994;2023-07-16T13:34:25;13;12;
73973;PMS5003;62336;-26.094;27.994;2023-07-16T13:36:51;14;12;
73973;PMS5003;62336;-26.094;27.994;2023-07-16T13:39:16;13;13;
73973;PMS5003;62336;-26.094;27.994;2023-07-16T13:41:42;13;11;
73973;PMS5003;62336;-26.094;27.994;2023-07-16T13:44:07;17;16;
73973;PMS5003;62336;-26.094;27.994;2023-07-16T13:46:33;13;13;
73973;PMS5003;62336;-26.094;27.994;2023-07-16T13:48:58;16;16;
73973;PMS5003;62336;-26.094;27.994;2023-07-16T13:51:23;16;14;
73973;PMS5003;62336;-26.094;27.994;2023-07-16T13:53:49;12;11;
73973;PMS5003;62336;-26.094;27.994;2023-07-16T13:56:14;12;12;
73973;PMS5003;62336;-26.094;27.994;2023-07-16T13:58:40;14;13;
73973;PMS5003;62336;-26.094;27.994;2023-07-16T14:01:05;13;11;
73973;PMS5003;62336;-26.094;27.994;2023-07-16T14:03:30;11;11;
73973;PMS5003;62336;-26.094;27.994;2023-07-16T14:05:57;14;12;
73973;PMS5003;62336;-26.094;27.994;2023-07-16T14:08:21;11;11;
73973;PMS5003;62336;-26.094;27.994;2023-07-16T14:10:47;16;15;
73973;PMS5003;62336;-26.094;27.994;2023-07-16T14:13:12;20;19;
73973;PMS5003;62336;-26.094;27.994;2023-07-16T14:15:37;21;19;
73973;PMS5003;62336;-26.094;27.994;2023-07-16T14:18:03;22;21;
73973;PMS5003;62336;-26.094;27.994;2023-07-16T14:20:28;18;17;
73973;PMS5003;62336;-26.094;27.994;2023-07-16T14:22:53;21;20;
73973;PMS5003;62336;-26.094;27.994;2023-07-16T14:25:19;17;17;
73973;PMS5003;62336;-26.094;27.994;2023-07-16T14:27:44;14;14;
73973;PMS5003;62336;-26.094;27.994;2023-07-16T14:30:09;11;10;
73973;PMS5003;62336;-26.094;27.994;2023-07-16T14:32:35;13;12;
73973;PMS5003;62336;-26.094;27.994;2023-07-16T14:35:00;13;13;
73973;PMS5003;62336;-26.094;27.994;2023-07-16T14:37:25;12;12;
73973;PMS5003;62336;-26.094;27.994;2023-07-16T14:39:50;11;11;
73973;PMS5003;62336;-26.094;27.994;2023-07-16T14:42:16;15;12;
73973;PMS5003;62336;-26.094;27.994;2023-07-16T14:44:40;12;12;
73973;PMS5003;62336;-26.094;27.994;2023-07-16T14:47:06;12;12;
73973;PMS5003;62336;-26.094;27.994;2023-07-16T14:49:31;12;12;
73973;PMS5003;62336;-26.094;27.994;2023-07-16T14:51:56;13;13;
73973;PMS5003;62336;-26.094;27.994;2023-07-16T14:54:21;12;12;
73973;PMS5003;62336;-26.094;27.994;2023-07-16T14:56:46;15;14;
73973;PMS5003;62336;-26.094;27.994;2023-07-16T14:59:11;16;13;
73973;PMS5003;62336;-26.094;27.994;2023-07-16T15:01:36;12;12;
73973;PMS5003;62336;-26.094;27.994;2023-07-16T15:04:01;14;13;
73973;PMS5003;62336;-26.094;27.994;2023-07-16T15:06:27;15;14;
73973;PMS5003;62336;-26.094;27.994;2023-07-16T15:08:52;15;14;
73973;PMS5003;62336;-26.094;27.994;2023-07-16T15:11:17;14;14;
73973;PMS5003;62336;-26.094;27.994;2023-07-16T15:13:42;16;15;
73973;PMS5003;62336;-26.094;27.994;2023-07-16T15:16:08;15;15;
73973;PMS5003;62336;-26.094;27.994;2023-07-16T15:18:33;14;14;
73973;PMS5003;62336;-26.094;27.994;2023-07-16T15:20:59;15;14;
73973;PMS5003;62336;-26.094;27.994;2023-07-16T15:23:24;18;17;
73973;PMS5003;62336;-26.094;27.994;2023-07-16T15:25:49;19;17;
73973;PMS5003;62336;-26.094;27.994;2023-07-16T15:28:15;14;13;
73973;PMS5003;62336;-26.094;27.994;2023-07-16T15:30:40;17;17;
73973;PMS5003;62336;-26.094;27.994;2023-07-16T15:33:06;23;20;
73973;PMS5003;62336;-26.094;27.994;2023-07-16T15:35:31;19;19;